Time;durP1;ratioP1;P1;durP2;ratioP2;P2;SDS_P1;SDS_P2;PMS_P1;PMS_P2;Temp;Humidity;BMP_temperature;BMP_pressure;BME280_temperature;BME280_humidity;BME280_pressure;Samples;Min_cycle;Max_cycle;Signal;HPM_P1;HPM_P2
2022/01/21 00:00:51;;;;;;;10.32;2.58;;;;;;;-1.50;81.19;98668.88;5026651;28;20045;-59
2022/01/21 00:03:18;;;;;;;5.78;1.98;;;;;;;-1.45;80.67;98666.63;5021445;28;20045;-59
2022/01/21 00:05:44;;;;;;;8.50;2.47;;;;;;;-1.39;81.21;98674.03;5011466;28;20049;-58
2022/01/21 00:08:11;;;;;;;8.68;2.28;;;;;;;-1.34;80.57;98671.78;5026043;28;20046;-59
2022/01/21 00:10:38;;;;;;;7.68;1.80;;;;;;;-1.38;81.03;98672.22;5025683;28;20048;-58
2022/01/21 00:13:14;;;;;;;6.97;2.30;;;;;;;-1.35;81.00;98671.94;5021628;28;20048;-58
2022/01/21 00:15:41;;;;;;;7.82;2.40;;;;;;;-1.38;81.11;98674.88;5025149;28;20056;-59
2022/01/21 00:18:09;;;;;;;5.85;2.33;;;;;;;-1.38;81.60;98678.38;5026591;28;20413;-59
2022/01/21 00:31:36;;;;;;;5.65;2.25;;;;;;;-1.36;81.02;98678.22;5026239;28;20595;-59
2022/01/21 00:34:03;;;;;;;7.60;2.03;;;;;;;-1.37;81.00;98680.03;5025347;28;20386;-59
2022/01/21 00:36:30;;;;;;;4.20;2.70;;;;;;;-1.31;80.56;98675.97;5023645;28;20057;-59
2022/01/21 00:38:57;;;;;;;6.78;2.25;;;;;;;-1.36;80.82;98668.44;5025969;28;20052;-59
2022/01/21 00:41:28;;;;;;;4.72;2.20;;;;;;;-1.25;80.55;98674.56;5022564;28;20044;-58
2022/01/21 00:43:54;;;;;;;7.60;2.15;;;;;;;-1.24;80.23;98673.59;5010835;28;20050;-58
2022/01/21 00:46:21;;;;;;;10.38;3.13;;;;;;;-1.32;81.47;98676.97;5024298;28;20049;-58
2022/01/21 00:48:48;;;;;;;9.13;2.25;;;;;;;-1.35;81.13;98679.91;5025276;28;20044;-59
2022/01/21 00:51:15;;;;;;;4.90;1.63;;;;;;;-1.26;80.77;98680.88;5025878;28;20056;-59
2022/01/21 00:53:41;;;;;;;8.13;2.38;;;;;;;-1.37;81.07;98679.22;5026370;28;20056;-59
2022/01/21 00:56:08;;;;;;;8.27;1.98;;;;;;;-1.32;80.61;98671.66;5027606;28;20052;-58
2022/01/21 00:58:35;;;;;;;4.95;1.60;;;;;;;-1.23;80.58;98675.25;5025906;28;20505;-59
2022/01/21 01:01:01;;;;;;;8.82;1.80;;;;;;;-1.19;79.95;98684.63;5024939;28;20057;-59
2022/01/21 01:03:28;;;;;;;11.30;1.88;;;;;;;-1.27;80.60;98688.00;5026001;28;20053;-59
2022/01/21 01:05:56;;;;;;;4.60;1.95;;;;;;;-1.23;81.46;98686.72;5024485;28;20037;-58
2022/01/21 01:08:23;;;;;;;6.80;1.98;;;;;;;-1.15;80.29;98695.81;5023905;28;20139;-58
2022/01/21 01:21:36;;;;;;;5.80;1.92;;;;;;;-1.26;81.02;98718.09;5012057;28;20509;-59
2022/01/21 01:29:19;;;;;;;6.10;2.30;;;;;;;-1.23;80.58;98709.81;5029566;28;20048;-59
2022/01/21 01:31:46;;;;;;;12.85;2.75;;;;;;;-1.22;80.51;98708.84;5018553;28;20037;-60
2022/01/21 01:34:13;;;;;;;8.32;2.33;;;;;;;-1.23;81.01;98715.13;5030500;28;20059;-59
2022/01/21 01:36:43;;;;;;;12.60;2.70;;;;;;;-1.12;81.02;98714.97;5027575;28;20156;-59
2022/01/21 01:39:15;;;;;;;6.78;2.30;;;;;;;-1.11;80.89;98716.63;5029637;28;20046;-59
2022/01/21 01:41:50;;;;;;;6.03;2.03;;;;;;;-1.12;80.52;98722.94;5027583;28;20038;-59
2022/01/21 01:49:47;;;;;;;5.95;2.30;;;;;;;-1.22;81.19;98707.00;5028321;28;20044;-59
2022/01/21 01:52:17;;;;;;;8.05;2.45;;;;;;;-1.25;81.05;98712.59;5029211;28;20453;-59
2022/01/21 01:54:52;;;;;;;5.72;2.13;;;;;;;-1.20;81.73;98706.88;5030027;28;20096;-59
2022/01/21 01:57:19;;;;;;;7.15;2.92;;;;;;;-1.34;81.55;98697.53;5027502;28;20042;-59
2022/01/21 01:59:45;;;;;;;10.32;2.45;;;;;;;-1.31;81.55;98698.09;5027205;28;20068;-59
2022/01/21 02:02:15;;;;;;;11.05;2.75;;;;;;;-1.34;81.45;98698.38;5029649;28;20416;-59
2022/01/21 02:04:43;;;;;;;7.95;2.50;;;;;;;-1.33;81.72;98693.91;5028543;28;20056;-59
2022/01/21 02:07:11;;;;;;;7.32;2.25;;;;;;;-1.26;81.15;98689.66;5026669;28;20053;-59
2022/01/21 02:09:38;;;;;;;5.63;2.40;;;;;;;-1.34;81.34;98681.56;5027727;28;20092;-58
2022/01/21 02:12:07;;;;;;;11.88;2.75;;;;;;;-1.41;80.92;98689.28;5027734;28;20034;-58
2022/01/21 02:14:37;;;;;;;8.48;2.03;;;;;;;-1.39;81.45;98686.47;5028427;28;20081;-60
2022/01/21 02:17:17;;;;;;;6.10;2.05;;;;;;;-1.36;81.07;98683.56;5028332;28;20314;-59
2022/01/21 02:22:35;;;;;;;7.68;2.00;;;;;;;-1.38;81.20;98682.84;5027996;28;20052;-59
2022/01/21 02:25:16;;;;;;;6.30;2.20;;;;;;;-1.42;81.06;98681.44;5027098;28;20037;-59
2022/01/21 02:27:51;;;;;;;7.45;2.15;;;;;;;-1.50;81.55;98680.34;5026238;28;20054;-59
2022/01/21 02:30:21;;;;;;;5.65;1.75;;;;;;;-1.47;81.94;98684.56;5043715;28;20049;-58
2022/01/21 02:32:53;;;;;;;9.57;2.50;;;;;;;-1.60;81.74;98690.13;5026765;28;20669;-58
2022/01/21 02:35:21;;;;;;;6.40;2.22;;;;;;;-1.68;82.25;98690.00;5028301;28;20508;-58
2022/01/21 02:37:49;;;;;;;7.55;2.47;;;;;;;-1.60;82.09;98691.00;5026747;28;20049;-59
2022/01/21 02:40:17;;;;;;;5.45;2.05;;;;;;;-1.65;81.82;98703.00;5026154;28;20045;-59
2022/01/21 02:42:44;;;;;;;7.40;2.70;;;;;;;-1.66;82.30;98698.69;5029023;28;20061;-59
2022/01/21 02:45:14;;;;;;;7.97;2.35;;;;;;;-1.65;82.40;98695.88;5034925;28;20041;-58
2022/01/21 02:47:45;;;;;;;6.60;2.05;;;;;;;-1.66;81.99;98699.50;5024548;28;20041;-59
2022/01/21 02:50:12;;;;;;;8.07;2.05;;;;;;;-1.60;82.19;98709.59;5026360;28;20045;-58
2022/01/21 02:52:53;;;;;;;7.03;2.10;;;;;;;-1.54;81.45;98715.31;5029805;28;20033;-59
2022/01/21 02:55:20;;;;;;;4.93;2.00;;;;;;;-1.49;81.79;98721.88;5046001;28;20036;-59
2022/01/21 02:57:47;;;;;;;4.70;1.95;;;;;;;-1.45;82.87;98720.63;5033968;28;20045;-59
2022/01/21 03:00:16;;;;;;;9.13;2.55;;;;;;;-1.44;81.94;98711.66;5033111;28;20045;-59
2022/01/21 03:02:43;;;;;;;8.85;2.42;;;;;;;-1.44;82.04;98710.81;5025330;28;20092;-59
2022/01/21 03:05:14;;;;;;;12.18;3.40;;;;;;;-1.45;81.61;98711.78;5024752;28;20075;-59
2022/01/21 03:07:41;;;;;;;10.30;2.63;;;;;;;-1.46;81.93;98715.44;5022320;28;20676;-59
2022/01/21 03:10:08;;;;;;;14.20;2.90;;;;;;;-1.44;81.43;98722.28;5016565;28;20060;-57
2022/01/21 03:12:34;;;;;;;10.85;2.55;;;;;;;-1.36;81.49;98723.41;5026387;28;20060;-59
2022/01/21 03:15:02;;;;;;;6.45;2.20;;;;;;;-1.35;81.05;98725.94;5025910;28;20068;-58
2022/01/21 03:17:29;;;;;;;9.68;2.05;;;;;;;-1.28;80.30;98728.84;5025741;28;20055;-59
2022/01/21 03:19:55;;;;;;;8.52;2.30;;;;;;;-1.28;81.20;98720.88;5020158;28;20053;-59
2022/01/21 03:22:22;;;;;;;6.88;2.05;;;;;;;-1.27;80.54;98721.69;5025488;28;20034;-58
2022/01/21 03:24:49;;;;;;;6.38;1.88;;;;;;;-1.18;81.03;98716.38;5025992;28;20053;-59
2022/01/21 03:27:16;;;;;;;10.52;2.30;;;;;;;-1.31;79.84;98711.38;5025694;28;20470;-59
2022/01/21 03:29:44;;;;;;;11.93;3.35;;;;;;;-1.37;81.01;98719.91;5025486;28;20053;-60
2022/01/21 03:32:11;;;;;;;11.30;2.35;;;;;;;-1.47;81.12;98717.25;5027721;28;20034;-59
2022/01/21 03:34:38;;;;;;;8.70;2.70;;;;;;;-1.47;80.69;98722.56;5026032;28;20069;-58
2022/01/21 03:37:06;;;;;;;11.25;3.05;;;;;;;-1.47;81.21;98727.88;5030098;28;20038;-59
2022/01/21 03:39:33;;;;;;;7.15;2.95;;;;;;;-1.45;81.96;98727.75;5025824;28;20041;-59
2022/01/21 03:42:00;;;;;;;10.68;3.75;;;;;;;-1.45;80.53;98725.09;5025533;28;20051;-58
2022/01/21 03:44:27;;;;;;;7.47;2.25;;;;;;;-1.50;81.01;98735.31;5059200;28;20050;-59
2022/01/21 03:46:54;;;;;;;7.47;2.53;;;;;;;-1.58;80.43;98720.88;5041446;28;20045;-59
2022/01/21 03:49:21;;;;;;;9.30;2.03;;;;;;;-1.57;81.56;98735.03;5025527;28;20482;-58
2022/01/21 03:51:48;;;;;;;9.45;2.38;;;;;;;-1.58;81.16;98736.81;5025114;28;20410;-58
2022/01/21 03:54:15;;;;;;;7.50;2.15;;;;;;;-1.53;81.87;98738.22;5025593;28;20049;-59
2022/01/21 03:56:41;;;;;;;8.45;2.65;;;;;;;-1.54;80.96;98741.88;5025641;28;20141;-58
2022/01/21 03:59:08;;;;;;;5.25;2.60;;;;;;;-1.52;82.56;98743.41;5029139;28;20057;-58
2022/01/21 04:01:35;;;;;;;8.63;2.97;;;;;;;-1.48;80.97;98752.78;5028646;28;20049;-60
2022/01/21 04:04:02;;;;;;;7.97;1.98;;;;;;;-1.48;80.57;98743.94;5024908;28;20049;-59
2022/01/21 04:06:29;;;;;;;5.63;2.25;;;;;;;-1.48;80.52;98742.16;5024574;28;20663;-60
2022/01/21 04:08:56;;;;;;;13.07;2.67;;;;;;;-1.49;80.59;98735.16;5024283;28;20125;-60
2022/01/21 04:11:23;;;;;;;6.80;2.55;;;;;;;-1.48;80.81;98735.97;5026211;28;20045;-59
2022/01/21 04:13:50;;;;;;;6.10;2.30;;;;;;;-1.50;80.56;98732.63;5031951;28;20658;-59
2022/01/21 04:16:18;;;;;;;8.48;2.20;;;;;;;-1.60;81.14;98737.94;5025281;28;20044;-60
2022/01/21 04:18:46;;;;;;;10.57;2.50;;;;;;;-1.56;80.95;98728.72;5024489;28;20662;-59
2022/01/21 04:21:14;;;;;;;7.55;2.70;;;;;;;-1.63;81.05;98735.56;5024894;28;20095;-59
2022/01/21 04:23:41;;;;;;;6.78;2.80;;;;;;;-1.56;81.42;98739.34;5024319;28;20034;-59
2022/01/21 04:26:12;;;;;;;5.47;2.10;;;;;;;-1.65;80.93;98742.84;5024129;28;20649;-59
2022/01/21 04:28:39;;;;;;;8.43;2.20;;;;;;;-1.67;81.42;98747.47;5024669;28;20041;-59
2022/01/21 04:31:06;;;;;;;6.82;2.33;;;;;;;-1.75;81.08;98753.47;5024341;28;20056;-58
2022/01/21 04:33:53;;;;;;;8.02;2.55;;;;;;;-1.82;81.29;98753.19;5014861;28;20424;-58
2022/01/21 04:36:20;;;;;;;4.70;1.98;;;;;;;-1.83;81.60;98762.13;5024339;28;20037;-59
2022/01/21 04:38:46;;;;;;;6.80;2.00;;;;;;;-1.79;81.54;98763.53;5024299;28;20560;-60
2022/01/21 04:49:13;;;;;;;8.25;2.40;;;;;;;-1.73;81.94;98760.31;5024271;28;20052;-58
2022/01/21 04:51:41;;;;;;;11.02;2.60;;;;;;;-1.71;81.65;98773.44;5024015;28;20045;-59
2022/01/21 04:54:09;;;;;;;13.02;3.50;;;;;;;-1.66;81.40;98776.53;5029177;28;20041;-58
2022/01/21 04:56:38;;;;;;;10.27;2.85;;;;;;;-1.66;81.48;98773.88;5024254;28;21516;-60
2022/01/21 04:59:05;;;;;;;10.75;2.70;;;;;;;-1.63;81.86;98768.28;5024128;28;20488;-59
2022/01/21 05:01:33;;;;;;;5.78;2.28;;;;;;;-1.66;81.03;98765.91;5025502;28;20045;-58
2022/01/21 05:04:00;;;;;;;9.07;2.58;;;;;;;-1.65;81.13;98772.06;5024113;28;20045;-59
2022/01/21 05:06:27;;;;;;;6.30;2.58;;;;;;;-1.61;81.49;98766.34;5024391;28;20764;-59
2022/01/21 05:08:55;;;;;;;6.88;2.85;;;;;;;-1.65;81.31;98769.41;5024008;28;20050;-59
2022/01/21 05:11:24;;;;;;;11.30;2.88;;;;;;;-1.64;81.26;98776.41;5023878;28;20058;-60
2022/01/21 05:14:10;;;;;;;13.65;3.13;;;;;;;-1.73;81.68;98775.41;5023903;28;20058;-58
2022/01/21 05:16:45;;;;;;;5.88;2.20;;;;;;;-1.73;81.96;98792.19;5024068;28;20073;-59
2022/01/21 05:19:17;;;;;;;7.20;3.33;;;;;;;-1.70;82.15;98791.06;5024695;28;20049;-59
2022/01/21 05:22:03;;;;;;;8.68;2.00;;;;;;;-1.74;81.43;98793.16;5023453;28;20080;-59
2022/01/21 05:24:35;;;;;;;9.80;3.15;;;;;;;-1.76;81.56;98791.63;5024279;28;20120;-58
2022/01/21 05:27:02;;;;;;;8.02;2.97;;;;;;;-1.73;81.71;98797.50;5023932;28;20042;-60
2022/01/21 05:29:35;;;;;;;7.38;2.80;;;;;;;-1.77;81.49;98798.75;5022931;28;20126;-59
2022/01/21 05:32:11;;;;;;;7.07;2.65;;;;;;;-1.79;81.93;98805.16;5026839;28;20053;-59
2022/01/21 05:35:16;;;;;;;7.03;2.70;;;;;;;-1.81;82.17;98818.56;5001986;28;20408;-58
2022/01/21 05:37:54;;;;;;;6.60;2.72;;;;;;;-1.74;82.23;98814.41;5002258;28;20058;-60
2022/01/21 05:40:41;;;;;;;11.23;3.65;;;;;;;-1.76;81.80;98811.06;5018023;28;20060;-59
2022/01/21 05:43:27;;;;;;;6.57;2.47;;;;;;;-1.78;81.82;98810.34;5023773;28;20042;-60
2022/01/21 05:46:25;;;;;;;14.55;2.38;;;;;;;-1.72;81.98;98812.47;5025475;28;20059;-59
2022/01/21 05:49:06;;;;;;;6.45;2.50;;;;;;;-1.76;82.40;98807.56;5013461;28;20064;-59
2022/01/21 05:51:53;;;;;;;9.40;2.75;;;;;;;-1.76;82.00;98812.88;5025307;28;20124;-60
2022/01/21 05:54:39;;;;;;;11.90;3.10;;;;;;;-1.77;81.57;98808.53;5028236;28;20052;-60
2022/01/21 05:57:19;;;;;;;7.07;2.42;;;;;;;-1.76;81.51;98808.41;5022142;28;20057;-59
2022/01/21 05:59:49;;;;;;;7.22;2.50;;;;;;;-1.68;80.97;98809.50;5024529;28;20045;-59
2022/01/21 06:02:16;;;;;;;12.43;2.72;;;;;;;-1.70;81.41;98807.00;5025479;28;20525;-59
2022/01/21 06:04:46;;;;;;;8.23;3.83;;;;;;;-1.77;81.66;98806.72;5024540;28;20065;-63
2022/01/21 06:07:13;;;;;;;5.18;2.63;;;;;;;-1.81;81.84;98792.03;5023177;28;20055;-62
2022/01/21 06:09:40;;;;;;;9.88;3.67;;;;;;;-1.88;81.75;98798.88;5022314;28;20041;-63
2022/01/21 06:12:08;;;;;;;14.77;3.90;;;;;;;-1.90;81.85;98800.81;5021763;28;20136;-62
2022/01/21 06:14:36;;;;;;;10.25;2.83;;;;;;;-1.89;82.38;98795.38;5020476;28;20038;-62
2022/01/21 06:17:04;;;;;;;11.68;3.17;;;;;;;-1.87;82.31;98806.72;5024538;28;20049;-62
2022/01/21 06:19:30;;;;;;;9.95;2.70;;;;;;;-1.86;82.06;98799.56;5026447;28;20053;-62
2022/01/21 06:21:57;;;;;;;9.70;3.42;;;;;;;-1.89;82.25;98799.81;5025374;28;20048;-63
2022/01/21 06:24:23;;;;;;;15.82;3.13;;;;;;;-1.81;83.01;98807.94;5026239;28;20050;-61
2022/01/21 06:26:50;;;;;;;11.73;3.22;;;;;;;-1.77;82.67;98833.25;5025774;28;20053;-62
2022/01/21 06:29:17;;;;;;;8.85;3.35;;;;;;;-1.70;82.08;98836.22;5025522;28;20049;-63
2022/01/21 06:31:43;;;;;;;8.73;2.63;;;;;;;-1.70;83.65;98831.75;5026486;28;20052;-62
2022/01/21 06:34:10;;;;;;;8.65;3.20;;;;;;;-1.67;82.62;98848.41;5027202;28;20037;-63
2022/01/21 06:36:40;;;;;;;8.60;2.78;;;;;;;-1.76;82.25;98845.59;5027899;28;20053;-62
2022/01/21 06:39:07;;;;;;;6.82;2.83;;;;;;;-1.75;82.26;98836.63;5046666;28;20049;-62
2022/01/21 06:41:34;;;;;;;8.52;2.58;;;;;;;-1.76;82.41;98856.22;5031249;28;20052;-62
2022/01/21 06:44:01;;;;;;;10.13;3.30;;;;;;;-1.73;82.38;98850.59;5037169;28;20033;-62
2022/01/21 06:46:28;;;;;;;15.68;3.92;;;;;;;-1.68;81.94;98858.19;5026812;28;20050;-62
2022/01/21 06:48:54;;;;;;;9.15;4.05;;;;;;;-1.68;82.15;98870.59;5025447;28;20091;-62
2022/01/21 06:51:21;;;;;;;7.88;3.28;;;;;;;-1.70;81.95;98870.72;5025541;28;20033;-62
2022/01/21 06:53:48;;;;;;;9.43;3.17;;;;;;;-1.66;82.75;98876.63;5027719;28;20068;-62
2022/01/21 06:56:14;;;;;;;14.20;3.47;;;;;;;-1.68;81.74;98883.88;5030539;28;20104;-63
2022/01/21 06:58:42;;;;;;;19.60;3.85;;;;;;;-1.61;80.73;98880.56;5026171;28;20596;-63
2022/01/21 07:01:08;;;;;;;8.57;3.33;;;;;;;-1.63;80.95;98874.53;5025811;28;20054;-61
2022/01/21 07:03:35;;;;;;;7.50;3.60;;;;;;;-1.71;81.75;98879.69;5025330;28;20046;-62
2022/01/21 07:06:02;;;;;;;9.65;3.33;;;;;;;-1.74;82.00;98870.19;5025649;28;20045;-62
2022/01/21 07:08:29;;;;;;;6.18;2.97;;;;;;;-1.72;81.90;98872.69;5025766;28;20056;-65
2022/01/21 07:10:55;;;;;;;9.15;3.55;;;;;;;-1.66;82.58;98873.97;5025730;28;20099;-62
2022/01/21 07:13:22;;;;;;;9.13;3.42;;;;;;;-1.70;82.91;98879.56;5039720;28;20045;-63
2022/01/21 07:15:49;;;;;;;14.23;3.88;;;;;;;-1.70;81.60;98870.72;5033798;28;20045;-62
2022/01/21 07:18:15;;;;;;;7.88;3.17;;;;;;;-1.68;81.65;98873.25;5026167;28;20140;-62
2022/01/21 07:20:42;;;;;;;9.10;3.15;;;;;;;-1.68;81.92;98882.06;5016248;28;20053;-62
2022/01/21 07:23:09;;;;;;;14.60;3.33;;;;;;;-1.73;81.60;98892.28;5024073;28;20069;-62
2022/01/21 07:25:36;;;;;;;10.40;3.53;;;;;;;-1.73;81.85;98889.63;5025209;28;20417;-63
2022/01/21 07:28:04;;;;;;;9.40;3.42;;;;;;;-1.65;80.90;98887.13;5024302;28;20049;-62
2022/01/21 07:30:31;;;;;;;12.35;3.58;;;;;;;-1.76;81.48;98880.09;5025721;28;20034;-62
2022/01/21 07:32:58;;;;;;;15.77;3.60;;;;;;;-1.79;81.43;98885.69;5027491;28;20053;-62
2022/01/21 07:35:24;;;;;;;10.80;3.13;;;;;;;-1.79;81.14;98884.84;5042775;28;20057;-62
2022/01/21 07:38:09;;;;;;;12.73;3.47;;;;;;;-1.67;81.73;98880.28;5027459;28;20072;-62
2022/01/21 07:40:35;;;;;;;12.40;5.28;;;;;;;-1.66;81.63;98881.94;5025784;28;20476;-62
2022/01/21 07:43:02;;;;;;;7.68;3.75;;;;;;;-1.70;82.07;98884.88;5034912;28;20041;-62
2022/01/21 07:45:29;;;;;;;9.18;3.22;;;;;;;-1.74;81.00;98891.41;5028501;28;20069;-62
2022/01/21 07:47:57;;;;;;;16.17;4.22;;;;;;;-1.71;80.95;98891.16;5025335;28;20051;-62
2022/01/21 07:50:29;;;;;;;11.00;4.13;;;;;;;-1.76;80.97;98890.72;5036849;28;20048;-62
2022/01/21 07:52:56;;;;;;;9.43;4.13;;;;;;;-1.73;81.54;98887.78;5025572;28;20068;-62
2022/01/21 07:55:23;;;;;;;13.45;4.65;;;;;;;-1.68;81.22;98890.03;5027033;28;20045;-62
2022/01/21 07:57:49;;;;;;;20.15;7.07;;;;;;;-1.61;80.58;98890.34;5037921;28;20050;-62
2022/01/21 08:00:17;;;;;;;7.78;4.00;;;;;;;-1.61;81.22;98896.50;5022998;28;20041;-62
2022/01/21 08:02:44;;;;;;;20.95;6.40;;;;;;;-1.64;80.83;98896.78;5031240;28;20518;-62
2022/01/21 08:05:11;;;;;;;12.13;6.45;;;;;;;-1.57;80.72;98907.69;5023637;28;20091;-61
2022/01/21 08:07:38;;;;;;;23.75;9.60;;;;;;;-1.62;80.24;98905.44;5038038;28;20049;-61
2022/01/21 08:10:05;;;;;;;10.68;4.55;;;;;;;-1.53;80.61;98902.94;5023977;28;20097;-62
2022/01/21 08:12:32;;;;;;;11.45;5.38;;;;;;;-1.47;80.63;98895.25;5024997;28;20057;-59
2022/01/21 08:14:59;;;;;;;10.57;3.83;;;;;;;-1.37;79.88;98894.47;5024098;28;20097;-58
2022/01/21 08:17:29;;;;;;;13.75;5.20;;;;;;;-1.39;80.46;98896.41;5011374;28;20059;-58
2022/01/21 08:19:59;;;;;;;8.48;3.80;;;;;;;-1.33;81.05;98891.38;5025395;28;20065;-59
2022/01/21 08:22:27;;;;;;;16.85;4.78;;;;;;;-1.26;80.46;98886.34;5036461;28;20055;-62
2022/01/21 08:24:53;;;;;;;12.77;4.38;;;;;;;-1.30;80.38;98895.56;5025056;28;20045;-63
2022/01/21 08:27:20;;;;;;;11.38;3.80;;;;;;;-1.31;79.70;98893.91;5044313;28;20084;-63
2022/01/21 08:29:47;;;;;;;11.98;4.03;;;;;;;-1.32;80.08;98893.03;5044625;28;20397;-63
2022/01/21 08:32:14;;;;;;;13.48;4.63;;;;;;;-1.34;79.66;98887.03;5043839;28;20045;-62
2022/01/21 08:34:41;;;;;;;12.23;7.10;;;;;;;-1.38;79.94;98877.66;5030433;28;20568;-63
2022/01/21 08:37:08;;;;;;;8.25;4.35;;;;;;;-1.26;79.83;98874.91;5026196;28;20137;-63
2022/01/21 08:39:34;;;;;;;12.90;4.35;;;;;;;-1.16;79.95;98885.50;5024403;28;20053;-62
2022/01/21 08:42:02;;;;;;;9.25;3.58;;;;;;;-1.15;78.96;98892.53;5024778;28;20045;-63
2022/01/21 08:44:29;;;;;;;14.32;4.85;;;;;;;-1.27;79.11;98905.94;5024124;28;20045;-63
2022/01/21 08:46:56;;;;;;;11.98;4.82;;;;;;;-1.16;79.38;98907.63;5023956;28;20056;-63
2022/01/21 08:49:37;;;;;;;12.20;3.85;;;;;;;-1.16;79.13;98912.94;5029314;28;20106;-64
2022/01/21 08:52:04;;;;;;;10.15;4.30;;;;;;;-1.21;79.14;98907.22;5030776;28;20049;-64
2022/01/21 08:54:31;;;;;;;9.05;3.95;;;;;;;-1.06;78.28;98915.63;5024966;28;20037;-63
2022/01/21 08:56:58;;;;;;;9.30;3.50;;;;;;;-1.00;79.09;98911.56;5022760;28;20132;-63
2022/01/21 08:59:26;;;;;;;5.63;3.20;;;;;;;-1.03;78.12;98914.50;5034297;28;20073;-63
2022/01/21 09:01:54;;;;;;;11.88;3.25;;;;;;;-1.05;77.85;98911.97;5031043;28;20057;-63
2022/01/21 09:04:21;;;;;;;8.27;3.88;;;;;;;-1.06;78.15;98918.28;5015448;28;20041;-63
2022/01/21 09:06:48;;;;;;;8.25;3.67;;;;;;;-1.03;78.16;98912.69;5028825;28;20424;-63
2022/01/21 09:09:15;;;;;;;9.38;3.33;;;;;;;-0.88;77.56;98906.94;5023886;28;20056;-63
2022/01/21 09:11:41;;;;;;;13.27;3.58;;;;;;;-0.89;77.80;98907.94;5023457;28;20041;-63
2022/01/21 09:14:08;;;;;;;8.30;3.15;;;;;;;-0.85;77.54;98906.66;5016505;28;20508;-63
2022/01/21 09:16:35;;;;;;;9.35;4.13;;;;;;;-0.96;77.92;98916.44;5028821;28;20106;-63
2022/01/21 09:19:04;;;;;;;11.75;3.60;;;;;;;-0.93;77.97;98915.31;5020445;28;20093;-63
2022/01/21 09:21:35;;;;;;;10.55;3.45;;;;;;;-0.90;78.00;98914.19;5024278;28;20045;-63
2022/01/21 09:24:04;;;;;;;8.68;3.10;;;;;;;-0.83;77.36;98907.34;5025502;28;20312;-63
2022/01/21 09:26:31;;;;;;;7.35;2.63;;;;;;;-0.78;76.78;98894.47;5023596;28;20053;-63
2022/01/21 09:29:00;;;;;;;5.18;2.92;;;;;;;-0.61;75.66;98908.03;5022449;28;20531;-63
2022/01/21 09:31:27;;;;;;;9.82;3.03;;;;;;;-0.54;76.21;98918.00;5036569;28;20072;-63
2022/01/21 09:34:14;;;;;;;6.07;2.65;;;;;;;-0.63;76.71;98912.66;5031493;28;20048;-63
2022/01/21 09:36:42;;;;;;;7.55;2.97;;;;;;;-0.61;76.96;98908.03;5034977;28;20063;-63
2022/01/21 09:39:10;;;;;;;10.02;3.22;;;;;;;-0.66;76.61;98909.28;5019631;28;20290;-63
2022/01/21 09:41:37;;;;;;;7.25;3.00;;;;;;;-0.35;75.70;98912.75;5021849;28;20041;-63
2022/01/21 09:44:06;;;;;;;11.27;2.85;;;;;;;-0.27;74.31;98912.88;5023330;28;20110;-64
2022/01/21 09:46:35;;;;;;;6.03;2.83;;;;;;;-0.24;75.50;98912.59;5023121;28;20045;-64
2022/01/21 09:49:08;;;;;;;9.00;3.33;;;;;;;-0.07;74.61;98926.16;5031965;28;20128;-63
2022/01/21 09:51:37;;;;;;;12.18;3.72;;;;;;;-0.17;75.60;98928.84;5025469;28;20069;-64
2022/01/21 09:54:07;;;;;;;10.40;3.30;;;;;;;-0.10;75.52;98934.41;5033369;28;20365;-63
2022/01/21 09:56:38;;;;;;;10.05;3.10;;;;;;;-0.02;75.17;98931.88;5036391;28;20069;-64
2022/01/21 09:59:06;;;;;;;8.30;2.78;;;;;;;0.01;74.42;98942.25;5028932;28;20124;-63
2022/01/21 10:01:33;;;;;;;11.15;3.42;;;;;;;0.09;75.03;98952.16;5029417;28;20124;-63
2022/01/21 10:04:01;;;;;;;7.32;3.40;;;;;;;0.10;73.71;98949.34;5028896;28;20041;-64
2022/01/21 10:06:29;;;;;;;6.95;2.78;;;;;;;0.23;75.48;98959.69;5028598;28;20065;-63
2022/01/21 10:08:56;;;;;;;9.73;2.97;;;;;;;0.25;74.04;98955.06;5027688;28;20099;-63
2022/01/21 10:11:24;;;;;;;6.68;2.58;;;;;;;0.35;73.39;98957.69;5027416;28;20048;-64
2022/01/21 10:13:52;;;;;;;11.20;2.92;;;;;;;0.25;73.72;98965.72;5027402;28;20593;-63
2022/01/21 10:16:19;;;;;;;6.78;2.92;;;;;;;0.29;74.24;98965.44;5028780;28;20054;-63
2022/01/21 10:19:22;;;;;;;9.35;2.90;;;;;;;0.31;74.06;98960.78;5028413;28;20132;-63
2022/01/21 10:21:59;;;;;;;9.27;3.58;;;;;;;0.51;72.71;98962.38;5007854;28;20069;-64
2022/01/21 10:24:26;;;;;;;12.57;3.25;;;;;;;0.51;72.89;98954.38;5006341;28;20092;-63
2022/01/21 10:26:55;;;;;;;10.50;2.72;;;;;;;0.25;72.11;98955.06;5026006;28;20065;-63
2022/01/21 10:29:23;;;;;;;8.93;3.35;;;;;;;0.28;73.98;98953.94;5028558;28;20580;-63
2022/01/21 10:31:55;;;;;;;11.38;3.08;;;;;;;0.14;72.86;98959.72;5026367;28;20080;-63
2022/01/21 10:34:33;;;;;;;7.55;2.83;;;;;;;0.25;73.25;98946.22;5027005;28;20041;-63
2022/01/21 10:37:07;;;;;;;6.72;2.78;;;;;;;0.50;72.38;98950.03;5045210;28;20059;-63
2022/01/21 10:40:03;;;;;;;6.47;2.75;;;;;;;0.69;72.06;98956.25;5025007;28;20052;-63
2022/01/21 10:42:30;;;;;;;12.30;3.72;;;;;;;1.12;71.42;98950.38;5010965;28;20057;-63
2022/01/21 10:44:59;;;;;;;7.95;2.75;;;;;;;0.82;71.43;98949.72;5026195;28;20041;-63
2022/01/21 10:47:32;;;;;;;8.27;2.90;;;;;;;0.59;70.50;98947.47;5031842;28;20107;-63
2022/01/21 10:50:05;;;;;;;9.02;3.50;;;;;;;0.70;70.47;98936.59;5028931;28;20531;-63
2022/01/21 10:52:42;;;;;;;9.63;3.45;;;;;;;0.41;72.52;98942.09;5018666;28;20044;-63
2022/01/21 10:55:29;;;;;;;11.13;2.70;;;;;;;0.72;70.30;98941.78;5030696;28;20539;-63
2022/01/21 10:58:13;;;;;;;9.23;2.90;;;;;;;1.06;69.56;98943.00;5025554;28;20041;-64
2022/01/21 11:01:02;;;;;;;6.57;2.80;;;;;;;0.81;71.35;98935.53;5025592;28;20037;-63
2022/01/21 11:03:30;;;;;;;10.02;2.95;;;;;;;0.56;71.92;98937.97;5027339;28;20564;-63
2022/01/21 11:06:17;;;;;;;10.05;3.17;;;;;;;0.55;71.95;98933.59;5026828;28;20041;-63
2022/01/21 11:08:48;;;;;;;13.45;3.35;;;;;;;0.70;70.58;98933.09;5027674;28;20042;-63
2022/01/21 11:11:23;;;;;;;;;;;;;;;0.88;70.52;98923.28;5027227;28;20497;-63
2022/01/21 11:13:50;;;;;;;9.23;2.92;;;;;;;0.98;70.35;98933.06;5035910;28;20413;-63
2022/01/21 11:16:20;;;;;;;10.40;2.53;;;;;;;1.00;71.06;98928.41;5047163;28;20654;-64
2022/01/21 11:19:12;;;;;;;13.85;4.45;;;;;;;1.01;70.30;98930.94;5046365;28;20053;-63
2022/01/21 11:21:38;;;;;;;8.90;2.50;;;;;;;1.24;68.75;98930.47;5046354;28;20086;-63
2022/01/21 11:24:07;;;;;;;11.95;4.15;;;;;;;1.23;69.17;98920.81;5047682;28;20037;-64
2022/01/21 11:26:35;;;;;;;7.75;2.85;;;;;;;1.17;69.75;98918.72;5047258;28;20049;-63
2022/01/21 11:29:04;;;;;;;16.75;7.70;;;;;;;0.78;69.76;98923.34;5047305;28;20048;-62
2022/01/21 11:31:31;;;;;;;9.40;4.32;;;;;;;0.85;70.31;98922.78;5044044;28;20799;-63
2022/01/21 11:34:09;;;;;;;8.40;2.83;;;;;;;0.92;71.57;98910.50;5007522;28;20612;-64
2022/01/21 11:36:36;;;;;;;7.70;2.10;;;;;;;0.96;71.19;98917.19;5007704;28;20042;-63
2022/01/21 11:39:04;;;;;;;6.03;2.53;;;;;;;0.84;71.00;98913.06;5025001;28;20040;-61
2022/01/21 11:41:31;;;;;;;5.88;2.40;;;;;;;0.79;72.09;98908.22;5026598;28;20049;-64
2022/01/21 11:44:01;;;;;;;8.85;2.53;;;;;;;0.59;72.01;98921.66;5027689;28;20452;-64
2022/01/21 11:49:08;;;;;;;7.22;3.10;;;;;;;0.58;72.13;98905.78;5037106;28;20519;-63
2022/01/21 11:51:38;;;;;;;9.77;2.53;;;;;;;0.55;71.54;98906.13;5044810;28;20052;-63
2022/01/21 11:54:13;;;;;;;8.68;2.65;;;;;;;0.56;72.26;98905.97;5043369;28;20497;-63
2022/01/21 11:56:55;;;;;;;6.03;2.55;;;;;;;0.80;70.99;98906.38;5025757;28;20049;-63
2022/01/21 11:59:51;;;;;;;6.82;2.38;;;;;;;0.73;70.94;98898.13;5026942;28;20045;-63
2022/01/21 12:02:24;;;;;;;6.85;2.35;;;;;;;0.85;70.76;98899.59;5026389;28;20052;-64
2022/01/21 12:05:01;;;;;;;5.60;2.05;;;;;;;1.06;70.70;98901.13;5026908;28;20046;-63
2022/01/21 12:07:35;;;;;;;6.70;1.98;;;;;;;1.19;71.66;98891.91;5023274;28;20088;-63
2022/01/21 12:10:05;;;;;;;7.53;2.65;;;;;;;1.29;70.26;98900.69;5025948;28;20050;-64
2022/01/21 12:12:54;;;;;;;5.05;1.50;;;;;;;1.48;69.33;98897.00;5021274;28;20505;-64
2022/01/21 12:18:08;;;;;;;5.70;1.95;;;;;;;1.29;69.68;98888.16;5024416;28;20175;-64
2022/01/21 12:20:38;;;;;;;3.60;1.77;;;;;;;1.39;70.28;98877.38;5023054;28;20165;-64
2022/01/21 12:23:17;;;;;;;5.40;1.50;;;;;;;1.35;70.00;98884.03;5022265;28;20052;-63
2022/01/21 12:26:08;;;;;;;8.32;2.95;;;;;;;1.35;70.46;98876.03;5024045;28;20038;-64
2022/01/21 12:29:00;;;;;;;7.78;2.40;;;;;;;1.17;70.36;98881.38;5030030;28;20119;-64
2022/01/21 12:31:56;;;;;;;7.28;2.25;;;;;;;1.11;69.71;98874.00;5023146;28;20130;-64
2022/01/21 12:34:28;;;;;;;6.60;2.08;;;;;;;1.39;69.54;98869.38;5030875;28;20128;-64